createdAt,value
2018-08-09T00:00:08.567Z,95.98
2018-08-09T00:01:09.130Z,96.18
2018-08-09T00:02:09.692Z,95.89
2018-08-09T00:03:10.256Z,96.27
2018-08-09T00:04:10.818Z,96.47
2018-08-09T00:05:11.383Z,96.56
2018-08-09T00:06:11.966Z,96.47
2018-08-09T00:07:12.550Z,96.47
2018-08-09T00:08:13.132Z,96.08
2018-08-09T00:09:13.717Z,96.18
2018-08-09T00:10:14.281Z,96.37
2018-08-09T00:11:14.841Z,97.33
2018-08-09T00:12:15.406Z,97.04
2018-08-09T00:13:15.970Z,97.24
2018-08-09T00:14:16.530Z,97.33
2018-08-09T00:15:17.093Z,96.94
2018-08-09T00:16:17.656Z,96.37
2018-08-09T00:17:18.239Z,96.47
2018-08-09T00:18:18.801Z,96.18
2018-08-09T00:19:19.365Z,96.08
2018-08-09T00:20:19.929Z,95.70
2018-08-09T00:21:20.514Z,95.89
2018-08-09T00:22:21.075Z,95.89
2018-08-09T00:23:21.659Z,95.79
2018-08-09T00:24:22.242Z,96.47
2018-08-09T00:25:22.806Z,95.98
2018-08-09T00:26:23.372Z,96.37
2018-08-09T00:27:23.933Z,96.94
2018-08-09T00:28:24.496Z,97.04
2018-08-09T00:29:25.083Z,97.19
2018-08-09T00:30:25.641Z,97.19
2018-08-09T00:31:26.203Z,97.33
2018-08-09T00:32:26.768Z,97.28
2018-08-09T00:33:27.353Z,97.66
2018-08-09T00:34:27.935Z,97.47
2018-08-09T00:35:28.498Z,97.28
2018-08-09T00:36:29.059Z,97.28
2018-08-09T00:37:29.623Z,97.09
2018-08-09T00:38:30.188Z,96.80
2018-08-09T00:39:30.750Z,97.28
2018-08-09T00:40:31.336Z,96.89
2018-08-09T00:41:31.919Z,97.66
2018-08-09T00:42:32.484Z,97.47
2018-08-09T00:43:33.043Z,97.38
2018-08-09T00:44:33.606Z,97.09
2018-08-09T00:45:34.171Z,97.28
2018-08-09T00:46:34.835Z,96.80
2018-08-09T00:47:35.396Z,97.09
2018-08-09T00:48:35.961Z,97.38
2018-08-09T00:49:36.542Z,97.19
2018-08-09T00:50:37.124Z,97.38
2018-08-09T00:51:37.685Z,97.28
2018-08-09T00:52:38.250Z,97.38
2018-08-09T00:53:38.811Z,97.38
2018-08-09T00:54:39.374Z,97.47
2018-08-09T00:55:39.957Z,97.38
2018-08-09T00:56:40.519Z,97.86
2018-08-09T00:57:41.082Z,97.86
2018-08-09T00:58:41.644Z,97.38
2018-08-09T00:59:42.208Z,96.99
2018-08-09T01:00:42.770Z,97.19
2018-08-09T01:01:43.333Z,97.38
2018-08-09T01:02:43.896Z,97.52
2018-08-09T01:03:44.463Z,98.10
2018-08-09T01:04:45.027Z,98.19
2018-08-09T01:05:45.589Z,98.67
2018-08-09T01:06:46.152Z,98.77
2018-08-09T01:07:46.713Z,98.86
2018-08-09T01:08:47.276Z,98.67
2018-08-09T01:09:47.841Z,98.28
2018-08-09T01:10:48.403Z,98.86
2018-08-09T01:11:48.965Z,98.86
2018-08-09T01:12:49.534Z,99.24
2018-08-09T01:13:50.097Z,99.05
2018-08-09T01:14:50.676Z,99.63
2018-08-09T01:15:51.260Z,99.53
2018-08-09T01:16:51.854Z,99.91
2018-08-09T01:17:52.405Z,99.73
2018-08-09T01:18:52.966Z,99.34
2018-08-09T01:19:53.530Z,99.24
2018-08-09T01:20:54.094Z,99.05
2018-08-09T01:21:54.674Z,99.44
2018-08-09T01:22:55.238Z,99.53
2018-08-09T01:23:55.800Z,99.99
2018-08-09T01:24:56.362Z,99.99
2018-08-09T01:25:56.923Z,99.99
2018-08-09T01:26:57.486Z,99.96
2018-08-09T01:27:58.048Z,99.99
2018-08-09T01:28:58.633Z,99.99
2018-08-09T01:29:59.195Z,99.99
2018-08-09T01:30:59.757Z,99.99
2018-08-09T01:32:00.319Z,99.99
2018-08-09T01:33:00.880Z,99.99
2018-08-09T01:34:01.444Z,99.99
2018-08-09T01:35:02.028Z,99.99
2018-08-09T01:36:02.614Z,99.99
2018-08-09T01:37:03.177Z,99.99
2018-08-09T01:38:03.741Z,99.99
2018-08-09T01:39:04.324Z,99.99
2018-08-09T01:40:04.886Z,99.99
2018-08-09T01:41:05.460Z,99.99
2018-08-09T01:42:06.010Z,99.99
2018-08-09T01:43:06.576Z,99.99
2018-08-09T01:44:07.136Z,99.99
2018-08-09T01:45:07.697Z,99.99
2018-08-09T01:46:08.260Z,99.99
2018-08-09T01:47:08.821Z,99.99
2018-08-09T01:48:09.384Z,99.99
2018-08-09T01:49:09.967Z,99.99
2018-08-09T01:50:10.527Z,99.99
2018-08-09T01:51:11.089Z,99.99
2018-08-09T01:52:11.652Z,99.99
2018-08-09T01:53:12.233Z,99.99
2018-08-09T01:54:12.795Z,99.99
2018-08-09T01:55:13.358Z,99.99
2018-08-09T01:56:13.923Z,99.99
2018-08-09T01:57:14.481Z,99.99
2018-08-09T01:58:15.093Z,99.99
2018-08-09T01:59:15.679Z,99.99
2018-08-09T02:00:16.241Z,99.99
2018-08-09T02:01:16.803Z,99.99
2018-08-09T02:02:17.372Z,99.99
2018-08-09T02:03:17.936Z,99.99
2018-08-09T02:04:18.500Z,99.99
2018-08-09T02:05:19.087Z,99.99
2018-08-09T02:06:19.655Z,99.99
2018-08-09T02:07:20.233Z,99.99
2018-08-09T02:08:20.798Z,99.99
2018-08-09T02:09:21.358Z,99.99
2018-08-09T02:10:21.920Z,99.99
2018-08-09T02:11:22.504Z,99.99
2018-08-09T02:12:23.068Z,99.99
2018-08-09T02:13:23.651Z,99.99
2018-08-09T02:14:24.217Z,99.99
2018-08-09T02:15:24.775Z,99.99
2018-08-09T02:16:25.338Z,99.99
2018-08-09T02:17:25.902Z,99.99
2018-08-09T02:18:26.463Z,99.99
2018-08-09T02:19:27.025Z,99.99
2018-08-09T02:20:27.587Z,99.99
2018-08-09T02:21:28.149Z,99.99
2018-08-09T02:22:28.710Z,99.99
2018-08-09T02:23:29.271Z,99.99
2018-08-09T02:24:29.858Z,99.99
2018-08-09T02:25:30.420Z,99.99
2018-08-09T02:26:31.009Z,99.99
2018-08-09T02:27:31.567Z,99.99
2018-08-09T02:28:32.129Z,99.99
2018-08-09T02:29:32.690Z,99.99
2018-08-09T02:30:33.260Z,99.99
2018-08-09T02:31:33.838Z,99.99
2018-08-09T02:32:34.403Z,99.99
2018-08-09T02:33:34.985Z,99.99
2018-08-09T02:34:35.548Z,99.99
2018-08-09T02:35:36.113Z,99.99
2018-08-09T02:36:36.700Z,99.99
2018-08-09T02:37:37.257Z,99.99
2018-08-09T02:38:37.819Z,99.99
2018-08-09T02:39:38.380Z,99.99
2018-08-09T02:40:38.941Z,99.99
2018-08-09T02:41:39.505Z,99.99
2018-08-09T02:42:40.068Z,99.99
2018-08-09T02:43:40.651Z,99.99
2018-08-09T02:44:41.215Z,99.99
2018-08-09T02:45:41.782Z,99.99
2018-08-09T02:46:42.411Z,99.99
2018-08-09T02:47:42.938Z,99.99
2018-08-09T02:48:43.501Z,99.99
2018-08-09T02:49:44.064Z,99.99
2018-08-09T02:50:44.625Z,99.99
2018-08-09T02:51:45.186Z,99.99
2018-08-09T02:52:45.754Z,99.99
2018-08-09T02:53:46.319Z,99.99
2018-08-09T02:54:46.876Z,99.99
2018-08-09T02:55:47.458Z,99.99
2018-08-09T02:56:48.020Z,99.99
2018-08-09T02:57:48.583Z,99.99
2018-08-09T02:58:49.144Z,99.99
2018-08-09T02:59:49.709Z,99.99
2018-08-09T03:00:50.294Z,99.99
2018-08-09T03:01:50.877Z,99.99
2018-08-09T03:02:51.459Z,99.99
2018-08-09T03:03:52.045Z,99.99
2018-08-09T03:04:52.604Z,99.99
2018-08-09T03:05:53.184Z,99.99
2018-08-09T03:06:53.746Z,99.99
2018-08-09T03:07:54.306Z,99.99
2018-08-09T03:08:54.874Z,99.99
2018-08-09T03:09:55.433Z,99.99
2018-08-09T03:10:55.995Z,99.99
2018-08-09T03:11:56.560Z,99.99
2018-08-09T03:12:57.119Z,99.99
2018-08-09T03:13:57.703Z,99.99
2018-08-09T03:14:58.265Z,99.99
2018-08-09T03:15:58.826Z,99.99
2018-08-09T03:16:59.389Z,99.99
2018-08-09T03:17:59.951Z,99.99
2018-08-09T03:19:00.512Z,99.99
2018-08-09T03:20:01.075Z,99.99
2018-08-09T03:21:01.643Z,99.99
2018-08-09T03:22:02.204Z,99.99
2018-08-09T03:23:02.782Z,99.99
2018-08-09T03:24:03.346Z,99.99
2018-08-09T03:25:03.913Z,99.99
2018-08-09T03:26:04.470Z,99.99
2018-08-09T03:27:05.057Z,99.99
2018-08-09T03:28:05.616Z,99.99
2018-08-09T03:29:06.184Z,99.99
2018-08-09T03:30:06.741Z,99.99
2018-08-09T03:31:07.304Z,99.99
2018-08-09T03:32:07.867Z,99.99
2018-08-09T03:33:08.430Z,99.99
2018-08-09T03:34:08.991Z,99.99
2018-08-09T03:35:09.555Z,99.99
2018-08-09T03:36:10.115Z,99.99
2018-08-09T03:37:10.676Z,99.99
2018-08-09T03:38:11.239Z,99.99
2018-08-09T03:39:11.800Z,99.99
2018-08-09T03:40:12.385Z,99.99
2018-08-09T03:41:12.948Z,99.99
2018-08-09T03:42:13.532Z,99.99
2018-08-09T03:43:14.093Z,99.99
2018-08-09T03:44:14.656Z,99.99
2018-08-09T03:45:15.219Z,99.99
2018-08-09T03:46:15.780Z,99.99
2018-08-09T03:47:16.342Z,99.99
2018-08-09T03:48:16.906Z,99.99
2018-08-09T03:49:17.533Z,99.99
2018-08-09T03:50:18.076Z,99.99
2018-08-09T03:51:18.639Z,99.99
2018-08-09T03:52:19.223Z,99.99
2018-08-09T03:53:19.786Z,99.99
2018-08-09T03:54:20.348Z,99.99
2018-08-09T03:55:20.912Z,99.99
2018-08-09T03:56:21.477Z,99.99
2018-08-09T03:57:22.041Z,99.99
2018-08-09T03:58:22.643Z,99.99
2018-08-09T03:59:23.165Z,99.99
2018-08-09T04:00:23.729Z,99.99
2018-08-09T04:01:24.294Z,99.99
2018-08-09T04:02:24.858Z,99.99
2018-08-09T04:03:25.420Z,99.99
2018-08-09T04:04:25.984Z,99.99
2018-08-09T04:05:26.547Z,99.99
2018-08-09T04:06:27.132Z,99.99
2018-08-09T04:07:27.696Z,99.99
2018-08-09T04:08:28.262Z,99.99
2018-08-09T04:09:28.827Z,99.99
2018-08-09T04:10:29.390Z,99.99
2018-08-09T04:11:29.954Z,99.99
2018-08-09T04:12:30.544Z,99.99
2018-08-09T04:13:31.106Z,99.99
2018-08-09T04:14:31.671Z,99.99
2018-08-09T04:15:32.259Z,99.99
2018-08-09T04:16:32.824Z,99.99
2018-08-09T04:17:33.392Z,99.99
2018-08-09T04:18:33.956Z,99.99
2018-08-09T04:19:34.519Z,99.99
2018-08-09T04:20:35.084Z,99.99
2018-08-09T04:21:35.650Z,99.99
2018-08-09T04:22:36.216Z,99.99
2018-08-09T04:23:36.782Z,99.99
2018-08-09T04:24:37.377Z,99.99
2018-08-09T04:25:37.912Z,99.99
2018-08-09T04:26:38.562Z,99.99
2018-08-09T04:27:39.058Z,99.99
2018-08-09T04:28:39.626Z,99.99
2018-08-09T04:29:40.192Z,99.99
2018-08-09T04:30:40.776Z,99.99
2018-08-09T04:31:41.343Z,99.99
2018-08-09T04:32:41.908Z,99.99
2018-08-09T04:33:42.473Z,99.99
2018-08-09T04:34:43.039Z,99.99
2018-08-09T04:35:43.604Z,99.99
2018-08-09T04:36:44.169Z,99.96
2018-08-09T04:37:44.735Z,99.39
2018-08-09T04:38:45.302Z,99.25
2018-08-09T04:39:45.890Z,99.73
2018-08-09T04:40:46.455Z,99.73
2018-08-09T04:41:47.045Z,99.44
2018-08-09T04:42:47.628Z,99.63
2018-08-09T04:43:48.213Z,99.54
2018-08-09T04:44:48.780Z,99.82
2018-08-09T04:45:49.345Z,98.58
2018-08-09T04:46:49.913Z,98.48
2018-08-09T04:47:50.479Z,97.81
2018-08-09T04:48:51.045Z,97.33
2018-08-09T04:49:51.612Z,97.81
2018-08-09T04:50:52.179Z,97.14
2018-08-09T04:51:52.747Z,97.24
2018-08-09T04:52:53.312Z,97.33
2018-08-09T04:53:53.879Z,97.52
2018-08-09T04:54:54.446Z,97.42
2018-08-09T04:55:55.015Z,97.71
2018-08-09T04:56:55.583Z,97.81
2018-08-09T04:57:56.157Z,98.00
2018-08-09T04:58:56.737Z,98.29
2018-08-09T04:59:57.304Z,98.58
2018-08-09T05:00:57.872Z,98.58
2018-08-09T05:01:58.439Z,98.96
2018-08-09T05:02:59.004Z,98.86
2018-08-09T05:03:59.571Z,98.29
2018-08-09T05:05:00.138Z,98.10
2018-08-09T05:06:00.706Z,97.91
2018-08-09T05:07:01.273Z,97.14
2018-08-09T05:08:01.862Z,97.04
2018-08-09T05:09:02.452Z,97.14
2018-08-09T05:10:02.996Z,97.81
2018-08-09T05:11:03.564Z,97.71
2018-08-09T05:12:04.133Z,97.61
2018-08-09T05:13:04.702Z,97.14
2018-08-09T05:14:05.270Z,96.99
2018-08-09T05:15:05.867Z,96.89
2018-08-09T05:16:06.429Z,97.09
2018-08-09T05:17:06.998Z,96.89
2018-08-09T05:18:07.587Z,96.51
2018-08-09T05:19:08.154Z,95.84
2018-08-09T05:20:08.722Z,95.84
2018-08-09T05:21:09.312Z,95.75
2018-08-09T05:22:09.880Z,95.60
2018-08-09T05:23:10.461Z,95.21
2018-08-09T05:24:11.021Z,95.03
2018-08-09T05:25:11.585Z,94.73
2018-08-09T05:26:12.157Z,94.49
2018-08-09T05:27:12.746Z,94.21
2018-08-09T05:28:13.317Z,92.81
2018-08-09T05:29:13.885Z,91.56
2018-08-09T05:30:14.454Z,91.08
2018-08-09T05:31:15.025Z,91.08
2018-08-09T05:32:15.595Z,90.79
2018-08-09T05:33:16.168Z,90.79
2018-08-09T05:34:16.843Z,90.41
2018-08-09T05:35:17.333Z,89.54
2018-08-09T05:36:17.901Z,89.35
2018-08-09T05:37:18.470Z,89.20
2018-08-09T05:38:19.042Z,89.01
2018-08-09T05:39:19.616Z,88.77
2018-08-09T05:40:20.189Z,88.91
2018-08-09T05:41:20.760Z,89.10
2018-08-09T05:42:21.334Z,88.62
2018-08-09T05:43:21.927Z,88.43
2018-08-09T05:44:22.662Z,88.71
2018-08-09T05:45:23.299Z,88.53
2018-08-09T05:46:23.787Z,88.43
2018-08-09T05:47:24.381Z,87.85
2018-08-09T05:48:24.954Z,87.66
2018-08-09T05:49:25.529Z,87.66
2018-08-09T05:50:26.102Z,87.56
2018-08-09T05:51:26.674Z,87.56
2018-08-09T05:52:27.268Z,87.66
2018-08-09T05:53:27.838Z,88.18
2018-08-09T05:54:28.409Z,87.95
2018-08-09T05:55:28.982Z,88.04
2018-08-09T05:56:29.577Z,87.95
2018-08-09T05:57:30.175Z,88.53
2018-08-09T05:58:30.829Z,87.85
2018-08-09T05:59:31.325Z,88.71
2018-08-09T06:00:31.917Z,88.62
2018-08-09T06:01:32.508Z,88.57
2018-08-09T06:02:33.080Z,88.51
2018-08-09T06:03:33.650Z,88.04
2018-08-09T06:04:34.222Z,87.12
2018-08-09T06:05:34.841Z,86.82
2018-08-09T06:06:35.368Z,87.40
2018-08-09T06:07:35.943Z,86.58
2018-08-09T06:08:36.517Z,84.94
2018-08-09T06:09:37.111Z,84.41
2018-08-09T06:10:37.683Z,82.96
2018-08-09T06:11:38.259Z,82.13
2018-08-09T06:12:38.833Z,82.07
2018-08-09T06:13:39.409Z,80.57
2018-08-09T06:14:39.984Z,78.19
2018-08-09T06:15:40.562Z,77.13
2018-08-09T06:16:41.135Z,76.20
2018-08-09T06:17:41.715Z,75.52
2018-08-09T06:18:42.340Z,75.13
2018-08-09T06:19:42.870Z,74.07
2018-08-09T06:20:43.470Z,73.97
2018-08-09T06:21:44.046Z,74.01
2018-08-09T06:22:44.621Z,73.63
2018-08-09T06:23:45.199Z,73.14
2018-08-09T06:24:45.776Z,72.85
2018-08-09T06:25:46.356Z,72.02
2018-08-09T06:26:46.971Z,71.47
2018-08-09T06:27:47.523Z,71.37
2018-08-09T06:28:48.190Z,71.22
2018-08-09T06:29:48.668Z,70.15
2018-08-09T06:30:49.247Z,69.37
2018-08-09T06:31:49.823Z,68.95
2018-08-09T06:32:50.404Z,69.05
2018-08-09T06:33:51.000Z,70.86
2018-08-09T06:34:51.580Z,70.79
2018-08-09T06:35:52.153Z,69.73
2018-08-09T06:36:52.730Z,69.79
2018-08-09T06:37:53.305Z,71.30
2018-08-09T06:38:53.903Z,71.88
2018-08-09T06:39:54.479Z,72.66
2018-08-09T06:40:55.054Z,73.47
2018-08-09T06:41:55.631Z,72.53
2018-08-09T06:42:56.206Z,70.89
2018-08-09T06:43:56.788Z,69.92
2018-08-09T06:44:57.361Z,69.89
2018-08-09T06:45:57.940Z,71.14
2018-08-09T06:46:58.518Z,71.34
2018-08-09T06:47:59.094Z,71.08
2018-08-09T06:48:59.673Z,70.40
2018-08-09T06:50:00.388Z,69.57
2018-08-09T06:51:00.960Z,69.02
2018-08-09T06:52:01.541Z,68.24
2018-08-09T06:53:02.140Z,68.15
2018-08-09T06:54:02.719Z,67.85
2018-08-09T06:55:03.298Z,68.24
2018-08-09T06:56:03.878Z,68.05
2018-08-09T06:57:04.674Z,67.40
2018-08-09T06:58:05.300Z,68.08
2018-08-09T06:59:05.882Z,67.05
2018-08-09T07:00:06.731Z,67.05
2018-08-09T07:01:07.449Z,65.82
2018-08-09T07:02:08.031Z,64.72
2018-08-09T07:03:08.612Z,63.36
2018-08-09T07:04:09.192Z,62.97
2018-08-09T07:05:10.122Z,63.49
2018-08-09T07:06:10.912Z,62.23
2018-08-09T07:07:11.925Z,61.74
2018-08-09T07:08:13.128Z,61.87
2018-08-09T07:09:14.172Z,60.99
2018-08-09T07:10:14.741Z,60.72
2018-08-09T07:11:15.325Z,60.72
2018-08-09T07:12:15.908Z,60.31
2018-08-09T07:13:16.492Z,60.89
2018-08-09T07:14:17.076Z,60.60
2018-08-09T07:15:17.690Z,60.31
2018-08-09T07:16:18.277Z,60.44
2018-08-09T07:17:18.874Z,61.67
2018-08-09T07:18:19.479Z,60.99
2018-08-09T07:19:20.061Z,61.08
2018-08-09T07:20:20.694Z,61.67
2018-08-09T07:21:21.249Z,61.77
2018-08-09T07:22:21.833Z,61.38
2018-08-09T07:23:22.416Z,61.02
2018-08-09T07:24:22.999Z,60.24
2018-08-09T07:25:23.579Z,61.11
2018-08-09T07:26:24.223Z,60.99
2018-08-09T07:27:24.742Z,60.53
2018-08-09T07:28:25.324Z,60.72
2018-08-09T07:29:25.928Z,60.72
2018-08-09T07:30:26.511Z,60.82
2018-08-09T07:31:27.096Z,60.72
2018-08-09T07:32:27.700Z,60.66
2018-08-09T07:33:28.288Z,60.53
2018-08-09T07:34:28.888Z,60.34
2018-08-09T07:35:29.469Z,60.53
2018-08-09T07:36:30.097Z,60.60
2018-08-09T07:37:30.630Z,60.99
2018-08-09T07:38:31.216Z,60.89
2018-08-09T07:39:31.875Z,60.60
2018-08-09T07:40:32.380Z,60.72
2018-08-09T07:41:32.959Z,60.46
2018-08-09T07:42:33.553Z,59.46
2018-08-09T07:43:34.130Z,59.56
2018-08-09T07:44:34.703Z,59.36
2018-08-09T07:45:35.286Z,60.41
2018-08-09T07:46:35.870Z,61.18
2018-08-09T07:47:36.452Z,60.41
2018-08-09T07:48:37.134Z,60.99
2018-08-09T07:49:37.655Z,61.28
2018-08-09T07:50:38.238Z,61.05
2018-08-09T07:51:38.822Z,61.87
2018-08-09T07:52:39.399Z,61.87
2018-08-09T07:53:39.981Z,60.96
2018-08-09T07:54:40.561Z,61.67
2018-08-09T07:55:41.142Z,61.67
2018-08-09T07:56:41.724Z,61.31
2018-08-09T07:57:42.305Z,60.92
2018-08-09T07:58:42.888Z,60.75
2018-08-09T07:59:43.496Z,60.78
2018-08-09T08:00:44.091Z,60.30
2018-08-09T08:01:44.675Z,59.64
2018-08-09T08:02:45.259Z,58.99
2018-08-09T08:03:45.844Z,59.06
2018-08-09T08:04:46.425Z,58.45
2018-08-09T08:05:47.033Z,59.75
2018-08-09T08:06:47.608Z,60.53
2018-08-09T08:07:48.350Z,60.92
2018-08-09T08:08:48.869Z,60.79
2018-08-09T08:09:49.450Z,62.00
2018-08-09T08:10:50.050Z,63.32
2018-08-09T08:11:50.628Z,64.26
2018-08-09T08:12:51.206Z,65.50
2018-08-09T08:13:51.785Z,65.66
2018-08-09T08:14:52.365Z,66.82
2018-08-09T08:15:52.943Z,67.66
2018-08-09T08:16:53.543Z,68.34
2018-08-09T08:17:54.121Z,68.30
2018-08-09T08:18:54.701Z,68.76
2018-08-09T08:19:55.276Z,69.43
2018-08-09T08:20:55.874Z,69.98
2018-08-09T08:21:56.483Z,70.76
2018-08-09T08:22:57.111Z,71.14
2018-08-09T08:23:57.687Z,71.34
2018-08-09T08:24:58.264Z,71.53
2018-08-09T08:25:58.839Z,71.40
2018-08-09T08:26:59.413Z,71.98
2018-08-09T08:27:59.987Z,73.14
2018-08-09T08:29:00.560Z,73.49
2018-08-09T08:30:01.135Z,73.65
2018-08-09T08:31:01.710Z,74.62
2018-08-09T08:32:02.466Z,74.42
2018-08-09T08:33:03.046Z,74.77
2018-08-09T08:34:03.829Z,75.54
2018-08-09T08:35:04.622Z,75.64
2018-08-09T08:36:05.146Z,75.45
2018-08-09T08:37:05.946Z,75.84
2018-08-09T08:38:06.584Z,75.84
2018-08-09T08:39:07.184Z,75.78
2018-08-09T08:40:07.759Z,75.54
2018-08-09T08:41:08.355Z,75.64
2018-08-09T08:42:09.224Z,75.74
2018-08-09T08:43:10.721Z,76.03
2018-08-09T08:44:12.712Z,75.84
2018-08-09T08:45:14.029Z,75.84
2018-08-09T08:46:15.113Z,76.26
2018-08-09T08:47:16.087Z,76.22
2018-08-09T08:48:16.741Z,76.06
2018-08-09T08:49:17.303Z,76.55
2018-08-09T08:50:18.204Z,78.19
2018-08-09T08:51:18.776Z,78.77
2018-08-09T08:52:19.400Z,78.67
2018-08-09T08:53:20.040Z,79.83
2018-08-09T08:54:20.546Z,80.03
2018-08-09T08:55:21.164Z,80.90
2018-08-09T08:56:21.692Z,81.38
2018-08-09T08:57:22.450Z,81.48
2018-08-09T08:58:23.013Z,81.53
2018-08-09T08:59:23.585Z,82.06
2018-08-09T09:00:24.164Z,81.48
2018-08-09T09:01:24.776Z,82.15
2018-08-09T09:02:25.389Z,82.15
2018-08-09T09:03:26.136Z,83.51
2018-08-09T09:04:26.764Z,84.05
2018-08-09T09:05:27.299Z,84.82
2018-08-09T09:06:27.872Z,85.05
2018-08-09T09:07:28.455Z,83.61
2018-08-09T09:08:29.021Z,82.98
2018-08-09T09:09:29.595Z,84.05
2018-08-09T09:10:30.178Z,83.95
2018-08-09T09:11:30.743Z,83.47
2018-08-09T09:12:31.317Z,84.43
2018-08-09T09:13:31.906Z,85.40
2018-08-09T09:14:32.483Z,85.78
2018-08-09T09:15:33.073Z,86.75
2018-08-09T09:16:33.646Z,87.04
2018-08-09T09:17:34.221Z,86.65
2018-08-09T09:18:34.945Z,86.94
2018-08-09T09:19:35.492Z,87.18
2018-08-09T09:20:36.064Z,87.47
2018-08-09T09:21:36.662Z,86.83
2018-08-09T09:22:37.234Z,85.58
2018-08-09T09:23:37.808Z,85.62
2018-08-09T09:24:38.596Z,84.89
2018-08-09T09:25:39.145Z,85.31
2018-08-09T09:26:39.720Z,83.18
2018-08-09T09:27:40.297Z,82.60
2018-08-09T09:28:40.874Z,82.32
2018-08-09T09:29:41.452Z,82.07
2018-08-09T09:30:42.031Z,81.10
2018-08-09T09:31:42.632Z,79.16
2018-08-09T09:32:43.231Z,80.13
2018-08-09T09:33:43.815Z,80.46
2018-08-09T09:34:44.393Z,80.75
2018-08-09T09:35:44.971Z,79.82
2018-08-09T09:36:45.550Z,79.14
2018-08-09T09:37:46.128Z,78.07
2018-08-09T09:38:46.707Z,76.81
2018-08-09T09:39:47.308Z,75.94
2018-08-09T09:40:47.890Z,76.37
2018-08-09T09:41:48.489Z,75.59
2018-08-09T09:42:49.070Z,74.85
2018-08-09T09:43:49.651Z,74.17
2018-08-09T09:44:50.232Z,73.94
2018-08-09T09:45:50.836Z,73.94
2018-08-09T09:46:51.416Z,73.97
2018-08-09T09:47:51.995Z,73.78
2018-08-09T09:48:52.573Z,73.30
2018-08-09T09:49:53.153Z,73.49
2018-08-09T09:50:53.733Z,74.21
2018-08-09T09:51:54.314Z,73.72
2018-08-09T09:52:54.897Z,72.69
2018-08-09T09:53:55.478Z,73.56
2018-08-09T09:54:56.088Z,71.75
2018-08-09T09:55:56.652Z,70.87
2018-08-09T09:56:57.228Z,70.20
2018-08-09T09:57:57.811Z,70.72
2018-08-09T09:58:58.422Z,69.84
2018-08-09T09:59:59.020Z,70.39
2018-08-09T10:00:59.601Z,70.97
2018-08-09T10:02:00.236Z,71.52
2018-08-09T10:03:00.782Z,71.03
2018-08-09T10:04:01.390Z,71.33
2018-08-09T10:05:01.972Z,71.72
2018-08-09T10:06:02.574Z,72.43
2018-08-09T10:07:03.164Z,70.91
2018-08-09T10:08:03.734Z,70.10
2018-08-09T10:09:04.335Z,68.87
2018-08-09T10:10:04.919Z,68.96
2018-08-09T10:11:05.499Z,69.13
2018-08-09T10:12:06.118Z,69.90
2018-08-09T10:13:06.907Z,69.96
2018-08-09T10:14:07.543Z,69.96
2018-08-09T10:15:08.455Z,70.32
2018-08-09T10:16:09.067Z,69.93
2018-08-09T10:17:09.663Z,70.71
2018-08-09T10:18:10.273Z,71.29
2018-08-09T10:19:10.854Z,71.87
2018-08-09T10:20:11.433Z,71.68
2018-08-09T10:21:12.037Z,72.36
2018-08-09T10:22:12.616Z,72.27
2018-08-09T10:23:13.196Z,72.17
2018-08-09T10:24:13.913Z,71.29
2018-08-09T10:25:14.457Z,71.48
2018-08-09T10:26:15.045Z,71.62
2018-08-09T10:27:15.700Z,70.55
2018-08-09T10:28:16.254Z,71.13
2018-08-09T10:29:16.838Z,70.87
2018-08-09T10:30:17.417Z,69.51
2018-08-09T10:31:17.998Z,69.26
2018-08-09T10:32:18.577Z,68.29
2018-08-09T10:33:19.345Z,69.26
2018-08-09T10:34:19.961Z,70.13
2018-08-09T10:35:20.540Z,68.29
2018-08-09T10:36:21.337Z,67.47
2018-08-09T10:37:21.964Z,68.29
2018-08-09T10:38:22.544Z,68.29
2018-08-09T10:39:23.122Z,67.63
2018-08-09T10:40:23.703Z,66.56
2018-08-09T10:41:24.297Z,65.82
2018-08-09T10:42:24.884Z,65.33
2018-08-09T10:43:25.463Z,65.43
2018-08-09T10:44:26.069Z,66.02
2018-08-09T10:45:26.649Z,66.17
2018-08-09T10:46:27.255Z,66.27
2018-08-09T10:47:27.807Z,66.17
2018-08-09T10:48:28.389Z,66.14
2018-08-09T10:49:28.968Z,66.34
2018-08-09T10:50:29.751Z,65.88
2018-08-09T10:51:30.351Z,65.72
2018-08-09T10:52:30.932Z,64.29
2018-08-09T10:53:31.530Z,64.10
2018-08-09T10:54:32.113Z,64.03
2018-08-09T10:55:32.735Z,63.77
2018-08-09T10:56:33.429Z,63.38
2018-08-09T10:57:33.978Z,62.34
2018-08-09T10:58:34.559Z,62.60
2018-08-09T10:59:35.141Z,62.12
2018-08-09T11:00:35.722Z,62.31
2018-08-09T11:01:36.304Z,62.41
2018-08-09T11:02:36.882Z,62.53
2018-08-09T11:03:37.460Z,61.85
2018-08-09T11:04:38.060Z,61.40
2018-08-09T11:05:38.620Z,61.17
2018-08-09T11:06:39.201Z,62.12
2018-08-09T11:07:39.783Z,62.18
2018-08-09T11:08:40.534Z,63.15
2018-08-09T11:09:41.096Z,63.54
2018-08-09T11:10:41.682Z,63.32
2018-08-09T11:11:42.262Z,63.64
2018-08-09T11:12:42.842Z,64.23
2018-08-09T11:13:43.438Z,64.29
2018-08-09T11:14:44.018Z,64.36
2018-08-09T11:15:44.596Z,64.17
2018-08-09T11:16:45.200Z,64.55
2018-08-09T11:17:45.773Z,64.65
2018-08-09T11:18:46.353Z,65.79
2018-08-09T11:19:46.929Z,65.59
2018-08-09T11:20:47.665Z,66.05
2018-08-09T11:21:48.236Z,66.14
2018-08-09T11:22:48.834Z,66.34
2018-08-09T11:23:49.414Z,67.21
2018-08-09T11:24:49.993Z,67.08
2018-08-09T11:25:50.571Z,67.02
2018-08-09T11:26:51.148Z,67.11
2018-08-09T11:27:51.724Z,67.18
2018-08-09T11:28:52.322Z,67.11
2018-08-09T11:29:52.904Z,67.02
2018-08-09T11:30:53.481Z,67.11
2018-08-09T11:31:54.060Z,67.31
2018-08-09T11:32:54.645Z,67.11
2018-08-09T11:33:55.269Z,67.21
2018-08-09T11:34:55.804Z,67.21
2018-08-09T11:35:56.400Z,67.21
2018-08-09T11:36:57.006Z,66.73
2018-08-09T11:37:57.579Z,67.08
2018-08-09T11:38:58.154Z,67.47
2018-08-09T11:39:58.730Z,68.35
2018-08-09T11:40:59.306Z,68.25
2018-08-09T11:41:59.904Z,68.84
2018-08-09T11:43:00.519Z,68.25
2018-08-09T11:44:01.060Z,67.86
2018-08-09T11:45:01.644Z,68.25
2018-08-09T11:46:02.417Z,67.80
2018-08-09T11:47:03.010Z,67.31
2018-08-09T11:48:03.585Z,67.31
2018-08-09T11:49:04.188Z,67.50
2018-08-09T11:50:04.908Z,67.11
2018-08-09T11:51:05.491Z,66.73
2018-08-09T11:52:06.067Z,67.02
2018-08-09T11:53:06.781Z,67.11
2018-08-09T11:54:07.377Z,66.93
2018-08-09T11:55:07.955Z,67.11
2018-08-09T11:56:08.763Z,67.70
2018-08-09T11:57:09.263Z,68.22
2018-08-09T11:58:09.813Z,68.48
2018-08-09T11:59:10.389Z,67.63
2018-08-09T12:00:10.967Z,68.09
2018-08-09T12:01:11.544Z,68.29
2018-08-09T12:02:12.146Z,68.96
2018-08-09T12:03:12.950Z,70.42
2018-08-09T12:04:13.525Z,70.72
2018-08-09T12:05:14.100Z,71.01
2018-08-09T12:06:14.676Z,70.32
2018-08-09T12:07:15.255Z,70.32
2018-08-09T12:08:15.831Z,70.72
2018-08-09T12:09:16.413Z,70.97
2018-08-09T12:10:16.989Z,69.22
2018-08-09T12:11:17.739Z,70.10
2018-08-09T12:12:18.310Z,70.78
2018-08-09T12:13:18.886Z,71.46
2018-08-09T12:14:19.638Z,71.17
2018-08-09T12:15:20.303Z,71.56
2018-08-09T12:16:20.827Z,71.52
2018-08-09T12:17:21.405Z,72.49
2018-08-09T12:18:22.003Z,72.88
2018-08-09T12:19:22.597Z,72.36
2018-08-09T12:20:23.349Z,75.08
2018-08-09T12:21:23.838Z,76.25
2018-08-09T12:22:24.411Z,76.60
2018-08-09T12:23:25.194Z,77.57
2018-08-09T12:24:25.846Z,78.40
2018-08-09T12:25:26.380Z,79.76
2018-08-09T12:26:27.204Z,79.04
2018-08-09T12:27:27.877Z,80.44
2018-08-09T12:28:28.449Z,81.57
2018-08-09T12:29:29.023Z,81.82
2018-08-09T12:30:29.638Z,82.98
2018-08-09T12:31:30.211Z,83.65
2018-08-09T12:32:30.972Z,84.39
2018-08-09T12:33:31.554Z,85.94
2018-08-09T12:34:32.147Z,87.16
2018-08-09T12:35:32.722Z,89.29
2018-08-09T12:36:33.349Z,88.85
2018-08-09T12:37:34.027Z,87.21
2018-08-09T12:38:34.590Z,88.33
2018-08-09T12:39:35.161Z,89.39
2018-08-09T12:40:35.732Z,89.11
2018-08-09T12:41:36.306Z,90.94
2018-08-09T12:42:36.903Z,92.10
2018-08-09T12:43:37.487Z,92.93
2018-08-09T12:44:38.061Z,92.74
2018-08-09T12:45:38.682Z,94.18
2018-08-09T12:46:39.201Z,94.72
2018-08-09T12:47:39.966Z,93.17
2018-08-09T12:48:40.556Z,94.62
2018-08-09T12:49:41.289Z,95.01
2018-08-09T12:50:41.861Z,95.78
2018-08-09T12:51:42.423Z,97.42
2018-08-09T12:52:43.216Z,97.96
2018-08-09T12:53:43.883Z,97.09
2018-08-09T12:54:44.451Z,99.60
2018-08-09T12:55:45.023Z,99.69
2018-08-09T12:56:45.604Z,99.99
2018-08-09T12:57:46.210Z,99.55
2018-08-09T12:58:46.845Z,99.55
2018-08-09T12:59:47.420Z,98.20